Time;durP1;ratioP1;P1;durP2;ratioP2;P2;SDS_P1;SDS_P2;PMS_P1;PMS_P2;Temp;Humidity;BMP_temperature;BMP_pressure;BME280_temperature;BME280_humidity;BME280_pressure;Samples;Min_cycle;Max_cycle;Signal;HPM_P1;HPM_P2
2023/02/06 00:00:23;;;;;;;6.93;3.93;;;;;;;-1.24;100.00;102781.28;2069623;28;20242;-63
2023/02/06 00:01:25;;;;;;;6.70;4.10;;;;;;;-1.56;100.00;102754.13;2068414;28;20553;-62
2023/02/06 00:02:25;;;;;;;6.13;4.43;;;;;;;-0.86;100.00;102867.88;2070337;28;20268;-62
2023/02/06 00:03:27;;;;;;;6.23;4.00;;;;;;;-1.68;100.00;102750.28;2070149;28;20200;-62
2023/02/06 00:04:28;;;;;;;6.45;4.10;;;;;;;-1.11;100.00;102857.47;2071144;28;20658;-62
2023/02/06 00:05:28;;;;;;;6.57;4.23;;;;;;;-1.16;100.00;102865.72;2071146;28;20269;-62
2023/02/06 00:06:29;;;;;;;7.40;4.43;;;;;;;-1.16;100.00;102867.66;2070273;28;20257;-63
2023/02/06 00:07:29;;;;;;;8.03;4.50;;;;;;;-1.18;100.00;102866.34;2070844;28;20833;-63
2023/02/06 00:08:30;;;;;;;6.97;4.50;;;;;;;-1.16;100.00;102870.38;2071339;28;20731;-63
2023/02/06 00:09:30;;;;;;;7.87;5.03;;;;;;;-1.22;100.00;102871.56;2071699;28;20180;-63
2023/02/06 00:10:31;;;;;;;7.13;4.27;;;;;;;-1.22;100.00;102869.63;2071051;28;20190;-62
2023/02/06 00:11:31;;;;;;;8.20;4.70;;;;;;;-1.29;100.00;102856.75;2071380;28;20190;-63
2023/02/06 00:12:32;;;;;;;8.07;4.10;;;;;;;-1.27;100.00;102877.88;2071929;28;20190;-62
2023/02/06 00:13:33;;;;;;;7.67;4.93;;;;;;;-1.50;100.00;102845.38;2071759;28;20226;-63
2023/02/06 00:14:34;;;;;;;7.10;4.45;;;;;;;-1.30;100.00;102876.91;2071688;28;20209;-62
2023/02/06 00:15:34;;;;;;;8.10;4.60;;;;;;;-1.19;100.00;102879.13;2071543;28;20507;-62
2023/02/06 00:16:35;;;;;;;6.80;4.83;;;;;;;-1.44;100.00;102833.31;2070895;28;20662;-63
2023/02/06 00:17:36;;;;;;;7.83;4.87;;;;;;;-1.53;100.00;102816.09;2071441;28;20291;-62
2023/02/06 00:18:37;;;;;;;6.95;4.53;;;;;;;-1.06;100.00;102879.13;2069945;28;20279;-63
2023/02/06 00:19:37;;;;;;;7.17;4.63;;;;;;;-0.99;100.00;102888.84;2071561;28;20200;-62
2023/02/06 00:20:38;;;;;;;11.03;4.90;;;;;;;-1.11;100.00;102859.41;2070557;28;20682;-63
2023/02/06 00:21:38;;;;;;;7.07;4.27;;;;;;;-1.05;100.00;102882.69;2071597;28;20195;-62
2023/02/06 00:22:39;;;;;;;6.83;4.30;;;;;;;-1.02;100.00;102881.28;2071272;28;20542;-62
2023/02/06 00:23:40;;;;;;;7.07;4.78;;;;;;;-1.19;100.00;102851.13;2070547;28;20219;-62
2023/02/06 00:24:40;;;;;;;7.10;4.60;;;;;;;-1.13;100.00;102869.75;2071757;28;20662;-62
2023/02/06 00:25:41;;;;;;;7.07;4.90;;;;;;;-1.13;100.00;102893.47;2071158;28;20200;-62
2023/02/06 00:26:41;;;;;;;7.87;4.63;;;;;;;-1.11;100.00;102886.59;2071081;28;20233;-62
2023/02/06 00:27:42;;;;;;;5.93;4.07;;;;;;;-1.22;100.00;102874.28;2070504;28;20199;-62
2023/02/06 00:28:42;;;;;;;5.77;4.10;;;;;;;-1.11;100.00;102884.69;2071203;28;20254;-62
2023/02/06 00:29:43;;;;;;;6.03;4.17;;;;;;;-1.11;100.00;102884.69;2071518;28;20186;-62
2023/02/06 00:30:46;;;;;;;5.93;3.93;;;;;;;-1.13;100.00;102886.09;2070612;28;20192;-63
2023/02/06 00:31:46;;;;;;;6.78;4.22;;;;;;;-1.29;100.00;102848.59;2071531;28;20213;-62
2023/02/06 00:32:46;;;;;;;7.10;4.67;;;;;;;-1.09;100.00;102889.03;2070429;28;20196;-62
2023/02/06 00:33:47;;;;;;;7.47;4.90;;;;;;;-1.71;100.00;102792.47;2072150;28;20214;-63
2023/02/06 00:34:47;;;;;;;6.03;3.90;;;;;;;-1.61;100.00;102805.88;2070308;28;20235;-63
2023/02/06 00:35:48;;;;;;;7.17;4.60;;;;;;;-1.63;100.00;102807.28;2071665;28;20192;-62
2023/02/06 00:36:50;;;;;;;6.80;4.33;;;;;;;-1.63;100.00;102831.75;2070262;28;20241;-62
2023/02/06 00:37:51;;;;;;;7.18;4.60;;;;;;;-1.23;100.00;102880.03;2069767;28;20188;-62
2023/02/06 00:38:51;;;;;;;6.77;4.67;;;;;;;-1.17;100.00;102876.94;2070356;28;20282;-63
2023/02/06 00:39:52;;;;;;;7.37;4.53;;;;;;;-1.35;100.00;102847.84;2070190;28;20197;-62
2023/02/06 00:40:52;;;;;;;7.30;4.73;;;;;;;-1.13;100.00;102894.25;2070986;28;20203;-62
2023/02/06 00:41:54;;;;;;;7.83;4.40;;;;;;;-1.12;100.00;102882.28;2071291;28;20188;-62
2023/02/06 00:42:55;;;;;;;6.45;4.20;;;;;;;-1.69;100.00;102789.47;2071282;28;20203;-62
2023/02/06 00:43:55;;;;;;;6.17;4.33;;;;;;;-1.09;100.00;102887.09;2071354;28;20197;-62
2023/02/06 00:44:55;;;;;;;5.90;4.13;;;;;;;-1.16;100.00;102881.25;2071452;28;20666;-62
2023/02/06 00:45:57;;;;;;;6.13;4.10;;;;;;;-1.17;100.00;102889.72;2071502;28;20661;-63
2023/02/06 00:46:57;;;;;;;6.03;4.10;;;;;;;-1.09;100.00;102889.03;2070972;28;20215;-62
2023/02/06 00:47:58;;;;;;;5.47;3.93;;;;;;;-1.08;100.00;102886.00;2070957;28;20187;-63
2023/02/06 00:48:58;;;;;;;5.60;3.93;;;;;;;-1.42;100.00;102821.03;2070468;28;20183;-63
2023/02/06 00:49:59;;;;;;;5.87;4.07;;;;;;;-0.98;100.00;102889.34;2070882;28;20200;-62
2023/02/06 00:50:59;;;;;;;6.53;3.90;;;;;;;-1.58;100.00;102801.78;2070993;28;20200;-63
2023/02/06 00:52:00;;;;;;;5.93;4.17;;;;;;;-0.96;100.00;102895.28;2071138;28;20434;-62
2023/02/06 00:53:00;;;;;;;7.63;4.37;;;;;;;-2.25;100.00;102715.41;2071344;28;20199;-63
2023/02/06 00:54:01;;;;;;;6.70;4.30;;;;;;;-1.02;100.00;102892.97;2071212;28;20229;-62
2023/02/06 00:55:01;;;;;;;6.77;4.33;;;;;;;-1.02;100.00;102887.53;2071308;28;20238;-62
2023/02/06 00:56:02;;;;;;;6.63;3.90;;;;;;;-1.67;100.00;102817.97;2071613;28;20192;-62
2023/02/06 00:57:02;;;;;;;5.53;3.77;;;;;;;-1.17;100.00;102869.56;2070630;28;20689;-62
2023/02/06 00:58:03;;;;;;;5.90;3.70;;;;;;;-1.04;100.00;102894.38;2070452;28;20202;-62
2023/02/06 00:59:03;;;;;;;5.77;3.60;;;;;;;-1.06;100.00;102897.41;2069589;28;20192;-63
2023/02/06 01:00:06;;;;;;;6.00;4.00;;;;;;;-1.07;100.00;102895.78;2070909;28;20193;-62
2023/02/06 01:01:06;;;;;;;5.68;3.80;;;;;;;-1.06;100.00;102897.41;2077014;28;20227;-63
2023/02/06 01:02:07;;;;;;;6.13;4.17;;;;;;;-1.32;100.00;102856.22;2078644;28;20188;-62
2023/02/06 01:03:07;;;;;;;5.40;3.90;;;;;;;-1.55;100.00;102826.44;2070500;28;20188;-63
2023/02/06 01:04:08;;;;;;;7.80;4.40;;;;;;;-1.19;100.00;102894.66;2071448;28;20197;-62
2023/02/06 01:05:09;;;;;;;6.50;3.83;;;;;;;-1.21;100.00;102893.00;2071289;28;20192;-62
2023/02/06 01:06:09;;;;;;;9.33;4.60;;;;;;;-2.14;100.00;102766.56;2070363;28;20192;-63
2023/02/06 01:07:10;;;;;;;7.70;4.37;;;;;;;-1.29;100.00;102897.56;2071186;28;20660;-63
2023/02/06 01:08:10;;;;;;;6.63;4.07;;;;;;;-1.38;100.00;102908.31;2069643;28;20220;-62
2023/02/06 01:09:10;;;;;;;5.83;3.93;;;;;;;-1.34;100.00;102901.13;2070644;28;20183;-63
2023/02/06 01:10:11;;;;;;;6.30;4.07;;;;;;;-1.45;100.00;102886.09;2069632;28;20574;-62
2023/02/06 01:11:17;;;;;;;6.87;3.97;;;;;;;-1.42;100.00;102903.75;2070891;28;20188;-63
2023/02/06 01:12:18;;;;;;;4.53;3.33;;;;;;;-1.82;100.00;102845.38;2070944;28;20222;-63
2023/02/06 01:13:18;;;;;;;5.07;3.50;;;;;;;-1.33;100.00;102906.28;2071013;28;20196;-63
2023/02/06 01:14:19;;;;;;;6.80;3.77;;;;;;;-2.02;100.00;102796.78;2078637;28;20190;-63
2023/02/06 01:15:19;;;;;;;7.07;3.73;;;;;;;-1.42;100.00;102898.31;2077826;28;20290;-62
2023/02/06 01:16:22;;;;;;;5.27;3.77;;;;;;;-1.42;100.00;102908.06;2071569;28;20201;-62
2023/02/06 01:17:22;;;;;;;5.60;3.35;;;;;;;-1.68;100.00;102895.19;2069431;28;20822;-62
2023/02/06 01:18:23;;;;;;;5.53;3.67;;;;;;;-1.46;100.00;102903.53;2070018;28;20215;-62
2023/02/06 01:19:23;;;;;;;5.90;3.57;;;;;;;-1.50;100.00;102902.50;2070665;28;20273;-62
2023/02/06 01:20:24;;;;;;;6.63;3.90;;;;;;;-1.46;100.00;102903.53;2069983;28;20262;-62
2023/02/06 01:21:24;;;;;;;5.60;3.63;;;;;;;-1.50;100.00;102899.78;2070949;28;20579;-63
2023/02/06 01:22:25;;;;;;;5.37;3.70;;;;;;;-1.64;100.00;102896.19;2071191;28;20727;-62
2023/02/06 01:23:26;;;;;;;6.00;3.90;;;;;;;-2.06;100.00;102808.56;2071291;28;20204;-62
2023/02/06 01:24:26;;;;;;;5.10;3.70;;;;;;;-1.50;100.00;102901.72;2071372;28;20655;-62
2023/02/06 01:25:27;;;;;;;5.70;3.33;;;;;;;-1.55;100.00;102899.06;2071008;28;20220;-63
2023/02/06 01:26:27;;;;;;;6.25;3.85;;;;;;;-1.57;100.00;102899.38;2071023;28;20269;-62
2023/02/06 01:27:28;;;;;;;5.17;3.47;;;;;;;-1.62;100.00;102894.00;2070738;28;20207;-62
2023/02/06 01:28:28;;;;;;;5.07;3.53;;;;;;;-1.68;100.00;102897.09;2069942;28;20600;-62
2023/02/06 01:29:29;;;;;;;5.93;3.93;;;;;;;-1.70;100.00;102899.31;2070875;28;20183;-62
2023/02/06 01:30:29;;;;;;;5.60;3.87;;;;;;;-1.68;100.00;102895.19;2070048;28;20278;-62
2023/02/06 01:31:30;;;;;;;5.70;3.80;;;;;;;-2.18;100.00;102811.72;2070966;28;20688;-63
2023/02/06 01:32:31;;;;;;;5.30;3.67;;;;;;;-2.09;100.00;102820.00;2070758;28;20627;-62
2023/02/06 01:33:31;;;;;;;4.57;3.37;;;;;;;-1.59;100.00;102898.84;2070447;28;20194;-63
2023/02/06 01:34:32;;;;;;;5.53;3.70;;;;;;;-1.75;100.00;102864.03;2070940;28;20199;-62
2023/02/06 01:35:32;;;;;;;5.43;3.87;;;;;;;-2.05;100.00;102827.25;2071109;28;20235;-62
2023/02/06 01:36:32;;;;;;;4.93;3.50;;;;;;;-1.95;100.00;102862.41;2070560;28;21461;-62
2023/02/06 01:37:34;;;;;;;5.60;3.70;;;;;;;-1.68;100.00;102894.38;2070759;28;20926;-62
2023/02/06 01:38:35;;;;;;;5.97;3.47;;;;;;;-2.86;100.00;102701.13;2069342;28;20196;-63
2023/02/06 01:39:35;;;;;;;6.47;3.60;;;;;;;-1.71;100.00;102897.69;2069206;28;20200;-62
2023/02/06 01:40:36;;;;;;;6.17;3.57;;;;;;;-2.53;100.00;102770.66;2069698;28;20243;-63
2023/02/06 01:41:36;;;;;;;4.57;3.10;;;;;;;-1.71;100.00;102884.09;2069855;28;20187;-63
2023/02/06 01:42:37;;;;;;;5.00;3.57;;;;;;;-2.79;100.00;102724.06;2070906;28;20195;-63
2023/02/06 01:43:42;;;;;;;6.32;3.47;;;;;;;-1.65;100.00;102891.06;2067314;28;20501;-63
2023/02/06 01:44:42;;;;;;;4.55;3.25;;;;;;;-1.65;100.00;102891.84;2067919;28;20215;-63
2023/02/06 01:45:45;;;;;;;5.13;3.50;;;;;;;-1.62;100.00;102891.28;2070422;28;20670;-63
2023/02/06 01:46:47;;;;;;;4.97;3.38;;;;;;;-1.64;100.00;102901.63;2071022;28;20195;-62
2023/02/06 01:47:51;;;;;;;5.35;3.60;;;;;;;-2.51;100.00;102761.13;2070288;28;20192;-63
2023/02/06 01:48:53;;;;;;;5.50;3.95;;;;;;;-1.70;100.00;102913.69;2070168;28;20191;-63
2023/02/06 01:49:53;;;;;;;4.75;3.70;;;;;;;-2.38;100.00;102800.31;2070274;28;20196;-62
2023/02/06 01:50:56;;;;;;;5.43;3.77;;;;;;;-1.78;100.00;102881.75;2069691;28;20194;-63
2023/02/06 01:52:08;;;;;;;5.18;3.30;;;;;;;-1.92;100.00;102866.47;2069303;28;20202;-63
2023/02/06 01:53:10;;;;;;;4.43;3.15;;;;;;;-1.69;100.00;102900.91;2069590;28;20750;-63
2023/02/06 01:54:13;;;;;;;6.22;3.80;;;;;;;-1.70;100.00;102900.09;2070792;28;20189;-62
2023/02/06 01:55:13;;;;;;;5.28;3.45;;;;;;;-1.74;100.00;102899.09;2070356;28;20196;-63
2023/02/06 01:56:18;;;;;;;4.77;3.53;;;;;;;-2.17;100.00;102812.53;2070805;28;20220;-63
2023/02/06 01:57:19;;;;;;;5.30;3.60;;;;;;;-1.62;100.00;102897.50;2070952;28;20203;-63
2023/02/06 01:58:34;;;;;;;4.72;3.53;;;;;;;-1.61;100.00;102895.59;2070226;28;20283;-62
2023/02/06 01:59:36;;;;;;;4.97;3.67;;;;;;;-1.70;100.00;102896.59;2070377;28;20648;-63
2023/02/06 02:00:37;;;;;;;6.22;3.60;;;;;;;-1.81;100.00;102904.06;2069877;28;20192;-63
2023/02/06 02:01:38;;;;;;;5.97;4.00;;;;;;;-1.88;100.00;102896.28;2069637;28;20179;-63
2023/02/06 02:02:43;;;;;;;5.05;3.65;;;;;;;-2.83;100.00;102765.66;2070633;28;20618;-63
2023/02/06 02:03:47;;;;;;;4.95;3.45;;;;;;;-2.54;100.00;102812.47;2070469;28;20187;-63
2023/02/06 02:04:48;;;;;;;6.05;3.80;;;;;;;-2.08;100.00;102902.00;2070695;28;20203;-63
2023/02/06 02:05:51;;;;;;;6.43;3.60;;;;;;;-2.08;100.00;102900.38;2068293;28;20697;-63
2023/02/06 02:07:03;;;;;;;8.88;4.43;;;;;;;-2.11;100.00;102901.00;2071053;28;20190;-63
2023/02/06 02:08:31;;;;;;;5.40;3.78;;;;;;;-2.13;100.00;102899.34;2069825;28;20627;-63
2023/02/06 02:09:33;;;;;;;6.28;4.50;;;;;;;-2.20;100.00;102900.84;2069432;28;20365;-62
2023/02/06 02:10:34;;;;;;;7.80;4.53;;;;;;;-2.20;100.00;102895.41;2069666;28;20229;-63
2023/02/06 02:11:40;;;;;;;6.30;4.37;;;;;;;-2.23;100.00;102893.25;2070081;28;20701;-63
2023/02/06 02:12:41;;;;;;;6.65;4.53;;;;;;;-2.23;100.00;102893.25;2070116;28;20199;-63
2023/02/06 02:13:42;;;;;;;7.00;4.87;;;;;;;-2.88;100.00;102809.13;2070851;28;20195;-62
2023/02/06 02:14:44;;;;;;;6.85;4.57;;;;;;;-2.81;100.00;102840.25;2070052;28;20196;-63
2023/02/06 02:15:57;;;;;;;7.25;4.78;;;;;;;-2.42;100.00;102897.06;2069354;28;20684;-63
2023/02/06 02:17:13;;;;;;;7.03;4.35;;;;;;;-2.41;100.00;102902.16;2069709;28;20216;-63
2023/02/06 02:18:36;;;;;;;7.72;4.75;;;;;;;-2.48;100.00;102899.00;2069634;28;20183;-63
2023/02/06 02:19:58;;;;;;;6.65;4.53;;;;;;;-2.56;100.00;102898.84;2071292;28;20198;-62
2023/02/06 02:21:32;;;;;;;6.68;3.88;;;;;;;-2.69;100.00;102896.81;2069676;28;20180;-62
2023/02/06 02:23:05;;;;;;;6.50;4.20;;;;;;;-2.81;100.00;102894.53;2068673;28;20768;-63
2023/02/06 02:24:38;;;;;;;5.95;3.97;;;;;;;-2.75;100.00;102904.22;2055872;28;20428;-63
2023/02/06 02:25:50;;;;;;;7.47;4.65;;;;;;;-2.73;100.00;102898.50;2070015;28;20170;-63
2023/02/06 02:27:30;;;;;;;7.28;4.85;;;;;;;-2.79;100.00;102905.88;2069802;28;20191;-63
2023/02/06 02:28:33;;;;;;;6.65;4.55;;;;;;;-2.79;100.00;102899.63;2070453;28;20675;-63
2023/02/06 02:29:45;;;;;;;7.97;4.75;;;;;;;-2.82;100.00;102900.22;2070380;28;20645;-62
2023/02/06 02:31:02;;;;;;;7.55;4.22;;;;;;;-2.86;100.00;102901.91;2069635;28;20186;-63
2023/02/06 02:32:24;;;;;;;9.02;5.13;;;;;;;-2.85;100.00;102904.31;2070337;28;20217;-63
2023/02/06 02:33:36;;;;;;;9.35;4.93;;;;;;;-2.85;100.00;102908.94;2077620;28;20300;-63
2023/02/06 02:35:08;;;;;;;10.43;4.90;;;;;;;-2.86;100.00;102908.16;2077067;28;20744;-63
2023/02/06 02:36:09;;;;;;;6.63;4.50;;;;;;;-2.83;100.00;102904.03;2069087;28;20203;-62
2023/02/06 02:37:30;;;;;;;8.60;5.10;;;;;;;-2.86;100.00;102900.00;2070345;28;20243;-63
2023/02/06 02:38:30;;;;;;;8.07;5.00;;;;;;;-2.93;100.00;102910.38;2069365;28;20289;-63
2023/02/06 02:39:45;;;;;;;8.87;5.63;;;;;;;-3.88;100.00;102764.91;2070251;28;20186;-63
2023/02/06 02:40:53;;;;;;;11.18;5.68;;;;;;;-2.98;100.00;102907.72;2069929;28;20181;-63
2023/02/06 02:42:14;;;;;;;10.23;5.90;;;;;;;-3.01;100.00;102904.75;2069741;28;20206;-63
2023/02/06 02:43:21;;;;;;;10.55;5.78;;;;;;;-3.04;100.00;102908.06;2069286;28;20667;-63
2023/02/06 02:44:43;;;;;;;9.43;5.93;;;;;;;-2.97;100.00;102911.25;2070619;28;20207;-63
2023/02/06 02:45:59;;;;;;;13.45;6.15;;;;;;;-3.07;100.00;102889.63;2070555;28;20185;-63
2023/02/06 02:47:09;;;;;;;17.92;6.03;;;;;;;-2.84;100.00;102900.50;2070467;28;20675;-63
2023/02/06 02:48:24;;;;;;;9.98;5.38;;;;;;;-2.77;100.00;102909.09;2070021;28;20189;-63
2023/02/06 02:49:28;;;;;;;10.23;5.88;;;;;;;-2.73;100.00;102902.00;2070691;28;20284;-62
2023/02/06 02:50:30;;;;;;;11.02;6.40;;;;;;;-2.77;100.00;102913.75;2077073;28;20279;-63
2023/02/06 02:51:32;;;;;;;9.85;5.85;;;;;;;-3.31;100.00;102821.81;2077081;28;20289;-63
2023/02/06 02:52:33;;;;;;;9.20;5.75;;;;;;;-2.82;100.00;102911.88;2069638;28;20248;-63
2023/02/06 02:53:33;;;;;;;9.23;5.43;;;;;;;-2.81;100.00;102918.13;2068680;28;20263;-63
2023/02/06 02:54:34;;;;;;;7.40;5.37;;;;;;;-2.83;100.00;102909.47;2068880;28;20665;-63
2023/02/06 02:55:34;;;;;;;8.57;5.30;;;;;;;-2.77;100.00;102919.19;2070631;28;20272;-63
2023/02/06 02:56:35;;;;;;;7.17;4.83;;;;;;;-3.12;100.00;102847.13;2070626;28;20234;-63
2023/02/06 02:57:35;;;;;;;9.80;6.00;;;;;;;-2.74;100.00;102919.41;2069667;28;20667;-63
2023/02/06 02:58:36;;;;;;;8.43;5.27;;;;;;;-2.84;100.00;102910.53;2070053;28;20223;-63
2023/02/06 02:59:43;;;;;;;8.13;6.00;;;;;;;-3.05;100.00;102874.69;2069074;28;20209;-63
2023/02/06 03:00:53;;;;;;;6.97;4.95;;;;;;;-2.70;100.00;102916.91;2069925;28;20205;-63
2023/02/06 03:01:54;;;;;;;8.93;5.55;;;;;;;-2.75;100.00;102914.25;2069204;28;20190;-63
2023/02/06 03:02:57;;;;;;;6.65;4.88;;;;;;;-2.70;100.00;102920.44;2069587;28;20194;-63
2023/02/06 03:04:03;;;;;;;8.77;5.32;;;;;;;-2.76;100.00;102920.78;2072859;28;20740;-63
2023/02/06 03:05:09;;;;;;;7.60;5.00;;;;;;;-2.78;100.00;102893.13;2070755;28;20702;-63
2023/02/06 03:06:47;;;;;;;7.93;4.97;;;;;;;-2.72;100.00;102919.91;2070434;28;20198;-63
2023/02/06 03:07:51;;;;;;;8.75;5.05;;;;;;;-2.70;100.00;102915.03;2070286;28;20189;-63
2023/02/06 03:09:01;;;;;;;8.65;5.18;;;;;;;-2.82;100.00;102930.09;2070655;28;20659;-63
2023/02/06 03:10:20;;;;;;;8.32;5.60;;;;;;;-2.82;100.00;102925.44;2068943;28;20189;-63
2023/02/06 03:11:21;;;;;;;9.93;5.60;;;;;;;-2.85;100.00;102925.22;2070678;28;20253;-63
2023/02/06 03:12:34;;;;;;;7.97;5.70;;;;;;;-3.38;100.00;102839.50;2068947;28;20236;-63
2023/02/06 03:13:58;;;;;;;7.80;5.45;;;;;;;-2.79;100.00;102933.03;2069799;28;20390;-63
2023/02/06 03:15:02;;;;;;;10.07;6.05;;;;;;;-2.76;100.00;102924.31;2069647;28;20232;-63
2023/02/06 03:16:11;;;;;;;9.50;5.90;;;;;;;-2.82;100.00;102933.59;2069362;28;20538;-63
2023/02/06 03:17:18;;;;;;;8.60;5.80;;;;;;;-2.82;100.00;102933.59;2069111;28;20228;-63
2023/02/06 03:18:25;;;;;;;8.85;6.20;;;;;;;-2.82;100.00;102936.28;2070141;28;20185;-63
2023/02/06 03:19:36;;;;;;;10.43;6.43;;;;;;;-2.94;100.00;102919.59;2069667;28;20244;-63
2023/02/06 03:20:41;;;;;;;9.43;6.13;;;;;;;-2.87;100.00;102930.94;2069294;28;20187;-62
2023/02/06 03:21:44;;;;;;;9.25;5.88;;;;;;;-2.80;100.00;102928.69;2070362;28;20182;-63
2023/02/06 03:22:47;;;;;;;7.85;5.50;;;;;;;-2.80;100.00;102927.88;2069882;28;20732;-63
2023/02/06 03:23:52;;;;;;;10.82;5.55;;;;;;;-2.94;100.00;102930.47;2070392;28;20185;-63
2023/02/06 03:24:54;;;;;;;9.07;5.28;;;;;;;-3.48;100.00;102843.13;2070173;28;20208;-62
2023/02/06 03:25:59;;;;;;;9.43;5.90;;;;;;;-3.11;100.00;102894.00;2070360;28;20666;-63
2023/02/06 03:27:02;;;;;;;8.45;5.70;;;;;;;-3.26;100.00;102859.72;2070187;28;20213;-63
2023/02/06 03:28:09;;;;;;;13.35;6.35;;;;;;;-2.74;100.00;102946.53;2068985;28;20280;-63
2023/02/06 03:29:14;;;;;;;8.60;5.68;;;;;;;-2.68;100.00;102934.53;2069896;28;20596;-63
2023/02/06 03:30:18;;;;;;;13.23;6.15;;;;;;;-2.90;100.00;102898.97;2069172;28;20276;-63
2023/02/06 03:31:31;;;;;;;11.85;6.05;;;;;;;-2.63;100.00;102947.25;2070139;28;20385;-63
2023/02/06 03:32:35;;;;;;;14.32;6.45;;;;;;;-2.65;100.00;102936.69;2069098;28;20169;-63
2023/02/06 03:33:44;;;;;;;12.80;6.38;;;;;;;-2.63;100.00;102934.47;2068658;28;20596;-63
2023/02/06 03:35:00;;;;;;;9.55;6.18;;;;;;;-2.58;100.00;102939.84;2069040;28;20548;-63
2023/02/06 03:36:04;;;;;;;13.50;7.03;;;;;;;-2.56;100.00;102940.38;2070503;28;20199;-63
2023/02/06 03:37:04;;;;;;;10.40;6.10;;;;;;;-2.55;100.00;102935.75;2069191;28;20193;-63
2023/02/06 03:38:07;;;;;;;13.93;6.17;;;;;;;-2.52;100.00;102948.75;2069158;28;20273;-62
2023/02/06 03:39:07;;;;;;;11.75;6.03;;;;;;;-2.52;100.00;102941.41;2069917;28;20194;-63
2023/02/06 03:40:09;;;;;;;11.57;6.40;;;;;;;-3.31;100.00;102810.13;2070266;28;20189;-63
2023/02/06 03:41:11;;;;;;;11.15;5.97;;;;;;;-3.21;100.00;102829.84;2070185;28;20566;-63
2023/02/06 03:42:14;;;;;;;12.32;6.82;;;;;;;-2.49;100.00;102937.31;2070264;28;20633;-63
2023/02/06 03:43:17;;;;;;;10.40;6.43;;;;;;;-3.13;100.00;102834.63;2070412;28;20698;-63
2023/02/06 03:44:23;;;;;;;10.15;6.30;;;;;;;-2.46;100.00;102939.47;2071154;28;20214;-63
2023/02/06 03:45:35;;;;;;;8.93;5.80;;;;;;;-2.41;100.00;102937.47;2063133;28;20217;-63
2023/02/06 03:46:39;;;;;;;9.27;5.93;;;;;;;-2.39;100.00;102938.00;2071476;28;20178;-63
2023/02/06 03:47:41;;;;;;;9.25;6.18;;;;;;;-3.20;100.00;102811.66;2071513;28;20213;-63
2023/02/06 03:48:46;;;;;;;7.82;5.80;;;;;;;-2.58;100.00;102901.06;2071107;28;20196;-63
2023/02/06 03:49:49;;;;;;;9.05;6.22;;;;;;;-2.87;100.00;102854.16;2071842;28;20194;-63
2023/02/06 03:50:55;;;;;;;8.73;6.20;;;;;;;-2.86;100.00;102851.16;2071000;28;20190;-63
2023/02/06 03:52:04;;;;;;;9.10;5.82;;;;;;;-2.28;100.00;102960.41;2071488;28;20189;-63
2023/02/06 03:53:05;;;;;;;8.88;6.20;;;;;;;-2.27;100.00;102940.31;2071713;28;20202;-63
2023/02/06 03:54:08;;;;;;;10.70;6.10;;;;;;;-2.27;100.00;102937.59;2071047;28;20209;-63
2023/02/06 03:55:17;;;;;;;7.53;5.82;;;;;;;-2.22;100.00;102946.47;2072231;28;20243;-63
2023/02/06 03:56:41;;;;;;;8.85;6.13;;;;;;;-2.23;100.00;102955.75;2070702;28;20560;-63
2023/02/06 03:57:45;;;;;;;8.95;5.65;;;;;;;-2.23;100.00;102942.16;2071604;28;20613;-63
2023/02/06 03:58:45;;;;;;;8.35;5.63;;;;;;;-2.23;100.00;102950.31;2071357;28;20650;-63
2023/02/06 03:59:47;;;;;;;9.33;5.70;;;;;;;-2.39;100.00;102924.44;2071924;28;20536;-63
2023/02/06 04:00:47;;;;;;;8.77;5.55;;;;;;;-2.21;100.00;102950.03;2070278;28;20190;-63
2023/02/06 04:01:52;;;;;;;9.30;6.00;;;;;;;-2.21;100.00;102945.38;2071532;28;20278;-63
2023/02/06 04:02:56;;;;;;;7.80;5.80;;;;;;;-2.66;100.00;102883.50;2071657;28;20651;-63
2023/02/06 04:03:57;;;;;;;9.57;6.38;;;;;;;-2.20;100.00;102951.63;2070001;28;20192;-63
2023/02/06 04:04:57;;;;;;;8.90;6.20;;;;;;;-2.20;100.00;102948.91;2071330;28;20189;-63
2023/02/06 04:05:58;;;;;;;8.53;5.73;;;;;;;-2.20;100.00;102955.16;2070205;28;20690;-63
2023/02/06 04:07:11;;;;;;;9.43;6.05;;;;;;;-2.53;100.00;102903.69;2071578;28;20173;-63
2023/02/06 04:08:12;;;;;;;9.18;6.22;;;;;;;-2.26;100.00;102961.72;2071051;28;20190;-63
2023/02/06 04:09:12;;;;;;;8.37;5.13;;;;;;;-2.23;100.00;102963.88;2071666;28;20217;-63
2023/02/06 04:10:13;;;;;;;8.10;5.70;;;;;;;-2.39;100.00;102951.59;2070310;28;20261;-63
2023/02/06 04:11:13;;;;;;;7.87;5.80;;;;;;;-2.22;100.00;102960.06;2071351;28;20236;-63
2023/02/06 04:12:14;;;;;;;9.63;5.60;;;;;;;-2.59;100.00;102904.84;2071797;28;20183;-63
2023/02/06 04:13:14;;;;;;;8.23;5.67;;;;;;;-2.24;100.00;102969.59;2070792;28;20216;-63
2023/02/06 04:14:15;;;;;;;9.57;6.20;;;;;;;-2.92;100.00;102854.22;2070975;28;20760;-63
2023/02/06 04:15:15;;;;;;;8.07;5.50;;;;;;;-2.22;100.00;102970.94;2070897;28;20197;-63
2023/02/06 04:16:16;;;;;;;8.03;5.50;;;;;;;-2.21;100.00;102967.09;2070326;28;20257;-64
2023/02/06 04:17:16;;;;;;;7.70;5.27;;;;;;;-2.20;100.00;102968.75;2072481;28;20265;-63
2023/02/06 04:18:17;;;;;;;8.77;5.57;;;;;;;-2.97;100.00;102851.56;2070839;28;20190;-63
2023/02/06 04:19:17;;;;;;;8.57;5.40;;;;;;;-2.91;100.00;102853.94;2071806;28;20276;-63
2023/02/06 04:20:19;;;;;;;7.67;5.27;;;;;;;-2.19;100.00;102967.66;2071508;28;20190;-63
2023/02/06 04:21:19;;;;;;;10.98;6.40;;;;;;;-2.20;100.00;102962.50;2070598;28;20205;-63
2023/02/06 04:22:20;;;;;;;7.90;5.87;;;;;;;-2.31;100.00;102948.22;2071620;28;20275;-63
2023/02/06 04:23:20;;;;;;;9.80;5.73;;;;;;;-2.18;100.00;102963.81;2071556;28;20188;-63
2023/02/06 04:24:21;;;;;;;11.53;6.73;;;;;;;-2.77;100.00;102875.75;2071665;28;20680;-63
2023/02/06 04:25:21;;;;;;;11.30;7.37;;;;;;;-2.40;100.00;102930.97;2070875;28;20243;-63
2023/02/06 04:26:22;;;;;;;10.30;7.43;;;;;;;-2.31;100.00;102948.22;2071748;28;20238;-63
2023/02/06 04:27:23;;;;;;;13.20;7.70;;;;;;;-2.22;100.00;102967.41;2070599;28;20303;-63
2023/02/06 04:28:23;;;;;;;12.43;7.63;;;;;;;-2.26;100.00;102972.59;2071227;28;20187;-63
2023/02/06 04:29:24;;;;;;;11.73;7.93;;;;;;;-2.92;100.00;102878.63;2071472;28;20207;-63
2023/02/06 04:30:24;;;;;;;12.80;7.50;;;;;;;-2.26;100.00;102969.88;2070823;28;20193;-63
2023/02/06 04:31:25;;;;;;;14.23;7.57;;;;;;;-2.25;100.00;102966.09;2071148;28;20236;-63
2023/02/06 04:32:25;;;;;;;12.70;7.40;;;;;;;-2.53;100.00;102926.22;2071155;28;20183;-63
2023/02/06 04:33:26;;;;;;;12.80;7.37;;;;;;;-2.25;100.00;102971.53;2071370;28;20187;-63
2023/02/06 04:34:34;;;;;;;13.57;7.27;;;;;;;-2.28;100.00;102979.41;2071524;28;20176;-63
2023/02/06 04:35:34;;;;;;;15.38;7.75;;;;;;;-2.32;100.00;102973.75;2071051;28;20455;-63
2023/02/06 04:36:35;;;;;;;15.40;7.50;;;;;;;-2.31;100.00;102971.88;2071600;28;20192;-63
2023/02/06 04:37:36;;;;;;;13.38;7.47;;;;;;;-2.29;100.00;102975.91;2070183;28;20276;-63
2023/02/06 04:38:36;;;;;;;14.37;7.20;;;;;;;-2.32;100.00;102975.69;2062063;28;20211;-63
2023/02/06 04:39:37;;;;;;;12.87;6.43;;;;;;;-2.46;100.00;102955.75;2070597;28;20660;-63
2023/02/06 04:40:38;;;;;;;10.73;7.07;;;;;;;-2.34;100.00;102975.16;2068973;28;20338;-63
2023/02/06 04:41:38;;;;;;;11.23;5.80;;;;;;;-2.35;100.00;102971.66;2070259;28;20768;-63
2023/02/06 04:42:39;;;;;;;12.67;6.40;;;;;;;-2.34;100.00;102969.72;2071383;28;20199;-63
2023/02/06 04:43:39;;;;;;;10.70;5.87;;;;;;;-2.35;100.00;102973.53;2070349;28;20208;-63
2023/02/06 04:44:39;;;;;;;8.63;4.93;;;;;;;-2.43;100.00;102963.28;2071964;28;20184;-63
2023/02/06 04:45:40;;;;;;;10.77;5.20;;;;;;;-2.44;100.00;102957.06;2070969;28;20187;-64
2023/02/06 04:46:42;;;;;;;9.10;5.40;;;;;;;-2.46;100.00;102963.91;2070827;28;20688;-63
2023/02/06 04:47:42;;;;;;;20.40;6.30;;;;;;;-3.09;100.00;102872.84;2070290;28;20523;-63
2023/02/06 04:48:43;;;;;;;9.30;4.90;;;;;;;-2.43;100.00;102964.13;2070157;28;20191;-63
2023/02/06 04:49:43;;;;;;;11.90;6.53;;;;;;;-2.88;100.00;102885.09;2071628;28;20182;-63
2023/02/06 04:50:44;;;;;;;16.87;6.50;;;;;;;-2.42;100.00;102956.78;2069005;28;20199;-63
2023/02/06 04:51:44;;;;;;;10.70;5.40;;;;;;;-2.45;100.00;102950.03;2070989;28;20206;-63
2023/02/06 04:52:45;;;;;;;8.13;5.00;;;;;;;-2.47;100.00;102954.13;2070579;28;20190;-63
2023/02/06 04:53:45;;;;;;;8.47;4.47;;;;;;;-2.49;100.00;102946.28;2070959;28;20657;-63